Time;durP1;ratioP1;P1;durP2;ratioP2;P2;SDS_P1;SDS_P2;PMS_P1;PMS_P2;Temp;Humidity;BMP_temperature;BMP_pressure;BME280_temperature;BME280_humidity;BME280_pressure;Samples;Min_cycle;Max_cycle;Signal;HPM_P1;HPM_P2
2023/02/01 00:01:47;;;;;;;4.77;3.83;;;5.30;99.90;;;;;;5032101;28;20250;-51
2023/02/01 00:04:14;;;;;;;7.33;4.23;;;5.30;99.90;;;;;;5032662;28;20203;-50
2023/02/01 00:06:39;;;;;;;5.67;4.10;;;5.30;99.90;;;;;;5032912;28;20259;-49
2023/02/01 00:09:05;;;;;;;6.03;3.73;;;5.20;99.90;;;;;;5032737;28;20175;-52
2023/02/01 00:11:30;;;;;;;4.00;3.60;;;5.10;99.90;;;;;;5032601;28;20207;-53
2023/02/01 00:13:56;;;;;;;5.43;4.00;;;4.90;99.90;;;;;;5032754;28;20184;-51
2023/02/01 00:16:28;;;;;;;5.33;3.90;;;4.90;99.90;;;;;;5032272;28;20202;-48
2023/02/01 00:19:01;;;;;;;5.43;3.93;;;5.00;99.90;;;;;;5033064;28;20245;-49
2023/02/01 00:21:27;;;;;;;4.90;3.83;;;4.90;99.90;;;;;;5032857;28;20176;-48
2023/02/01 00:23:53;;;;;;;4.60;3.50;;;4.70;99.90;;;;;;5032109;28;20195;-52
2023/02/01 00:26:39;;;;;;;6.13;3.77;;;4.60;99.90;;;;;;5032733;28;20206;-48
2023/02/01 00:29:08;;;;;;;4.83;3.50;;;4.50;99.90;;;;;;5031812;28;20179;-49
2023/02/01 00:31:34;;;;;;;6.27;3.83;;;4.40;99.90;;;;;;5032757;28;20258;-49
2023/02/01 00:34:00;;;;;;;4.60;3.57;;;4.40;99.90;;;;;;5031887;28;20258;-50
2023/02/01 00:36:25;;;;;;;4.23;3.63;;;4.30;99.90;;;;;;5032336;28;20223;-50
2023/02/01 00:38:51;;;;;;;5.67;3.83;;;4.40;99.90;;;;;;5032299;28;20832;-51
2023/02/01 00:41:19;;;;;;;5.40;3.60;;;4.40;99.90;;;;;;5032022;28;20210;-48
2023/02/01 00:43:46;;;;;;;5.73;4.00;;;4.60;99.90;;;;;;5032115;28;20669;-49
2023/02/01 00:46:13;;;;;;;5.40;3.53;;;4.50;99.90;;;;;;5032430;28;20195;-48
2023/02/01 00:48:39;;;;;;;4.90;3.83;;;4.50;99.90;;;;;;5027675;28;20173;-49
2023/02/01 00:51:07;;;;;;;4.50;3.73;;;4.50;99.90;;;;;;5012544;28;20173;-49
2023/02/01 00:53:33;;;;;;;3.73;3.40;;;4.50;99.90;;;;;;5027560;28;20184;-49
2023/02/01 00:55:59;;;;;;;5.13;3.43;;;4.60;99.90;;;;;;5031577;28;20322;-51
2023/02/01 00:58:25;;;;;;;4.00;3.60;;;4.60;99.90;;;;;;5031733;28;20187;-48
2023/02/01 01:01:22;;;;;;;3.80;3.27;;;4.90;99.90;;;;;;5031243;28;20255;-52
2023/02/01 01:03:51;;;;;;;3.97;3.50;;;4.90;99.90;;;;;;4967175;28;20214;-49
2023/02/01 01:06:19;;;;;;;4.43;3.53;;;5.00;99.90;;;;;;4956600;28;20202;-48
2023/02/01 01:08:45;;;;;;;4.97;3.70;;;5.10;99.90;;;;;;4965426;28;20190;-48
2023/02/01 01:11:19;;;;;;;5.47;3.63;;;6.00;99.90;;;;;;4955763;28;20608;-48
2023/02/01 01:13:49;;;;;;;6.20;4.00;;;5.00;99.90;;;;;;4964592;28;20198;-49
2023/02/01 01:16:15;;;;;;;3.77;3.33;;;5.00;99.90;;;;;;4958453;28;20281;-50
2023/02/01 01:18:41;;;;;;;4.70;3.73;;;5.00;99.90;;;;;;4952720;28;20289;-49
2023/02/01 01:21:08;;;;;;;4.60;3.50;;;4.90;99.90;;;;;;4952578;28;20298;-50
2023/02/01 01:23:35;;;;;;;5.77;3.87;;;4.90;99.90;;;;;;4951676;28;20238;-49
2023/02/01 01:26:04;;;;;;;4.23;3.50;;;5.00;99.90;;;;;;4968804;28;20838;-48
2023/02/01 01:28:29;;;;;;;4.90;3.47;;;4.90;99.90;;;;;;4959200;28;20194;-49
2023/02/01 01:30:55;;;;;;;4.60;3.70;;;4.70;99.90;;;;;;4948780;28;20263;-52
2023/02/01 01:33:20;;;;;;;12.27;3.80;;;4.60;99.90;;;;;;4961969;28;20198;-49
2023/02/01 01:35:46;;;;;;;5.83;3.50;;;4.80;99.90;;;;;;4968531;28;20210;-49
2023/02/01 01:38:11;;;;;;;4.77;3.77;;;4.90;99.90;;;;;;4959120;28;20762;-51
2023/02/01 01:40:38;;;;;;;4.47;3.60;;;5.00;99.90;;;;;;4997274;28;20668;-50
2023/02/01 01:43:12;;;;;;;5.60;3.50;;;4.90;99.90;;;;;;5031285;28;20183;-49
2023/02/01 01:45:37;;;;;;;4.57;3.90;;;4.90;99.90;;;;;;5029785;28;20191;-49
2023/02/01 01:48:27;;;;;;;5.60;3.90;;;5.00;99.90;;;;;;5031127;28;20184;-50
2023/02/01 01:51:11;;;;;;;6.07;4.30;;;4.90;99.90;;;;;;5031376;28;20188;-49
2023/02/01 01:53:45;;;;;;;5.43;4.20;;;5.20;99.90;;;;;;5030731;28;20187;-50
2023/02/01 01:56:12;;;;;;;4.33;3.57;;;5.10;99.90;;;;;;5029315;28;20215;-49
2023/02/01 01:58:38;;;;;;;4.60;4.10;;;4.90;99.90;;;;;;5030270;28;20191;-49
2023/02/01 02:01:03;;;;;;;4.20;3.80;;;4.90;99.90;;;;;;5030685;28;20191;-49
2023/02/01 02:03:33;;;;;;;4.77;3.90;;;5.00;99.90;;;;;;5030299;28;20274;-52
2023/02/01 02:06:01;;;;;;;4.33;3.70;;;5.10;99.90;;;;;;5030867;28;20203;-48
2023/02/01 02:08:28;;;;;;;5.63;3.77;;;5.00;99.90;;;;;;5030531;28;20187;-49
2023/02/01 02:11:00;;;;;;;5.47;4.00;;;5.10;99.90;;;;;;5030986;28;20184;-51
2023/02/01 02:13:33;;;;;;;5.33;3.80;;;5.10;99.90;;;;;;5030256;28;20893;-50
2023/02/01 02:16:17;;;;;;;4.83;3.80;;;5.00;99.90;;;;;;5030483;28;20211;-48
2023/02/01 02:18:58;;;;;;;5.90;3.70;;;5.00;99.90;;;;;;5030605;28;20190;-49
2023/02/01 02:21:52;;;;;;;4.30;3.77;;;7.60;99.90;;;;;;5029866;28;20267;-48
2023/02/01 02:24:44;;;;;;;5.53;4.10;;;4.80;99.90;;;;;;5030171;28;20546;-50
2023/02/01 02:27:45;;;;;;;5.30;4.00;;;4.70;99.90;;;;;;5012861;28;20191;-49
2023/02/01 02:30:45;;;;;;;5.67;4.00;;;4.70;99.90;;;;;;5030844;28;20517;-50
2023/02/01 02:33:31;;;;;;;5.37;3.70;;;4.70;99.90;;;;;;5029405;28;20179;-48
2023/02/01 02:36:04;;;;;;;5.57;4.37;;;4.80;99.90;;;;;;5029445;28;20661;-48
2023/02/01 02:38:36;;;;;;;5.43;4.00;;;5.00;99.90;;;;;;5028971;28;20178;-50
2023/02/01 02:47:23;;;;;;;6.17;4.00;;;4.90;99.90;;;;;;5030168;28;20183;-49
2023/02/01 02:47:27;;;;;;;3.93;3.40;;;4.80;99.90;;;;;;5024812;28;20195;-49
2023/02/01 02:55:43;;;;;;;4.63;3.60;;;4.90;99.90;;;;;;5029584;28;20242;-48
2023/02/01 03:06:25;;;;;;;5.30;3.83;;;4.50;99.90;;;;;;5029222;28;20210;-51
2023/02/01 03:08:53;;;;;;;5.57;4.00;;;4.50;99.90;;;;;;5030192;28;20549;-49
2023/02/01 03:11:20;;;;;;;6.17;4.10;;;4.60;99.90;;;;;;5030325;28;20545;-50
2023/02/01 03:13:48;;;;;;;4.10;3.70;;;4.60;99.90;;;;;;5012480;28;20179;-49
2023/02/01 03:16:26;;;;;;;4.53;3.57;;;4.50;99.90;;;;;;5029453;28;20203;-51
2023/02/01 03:19:12;;;;;;;4.80;4.00;;;4.50;99.90;;;;;;5030339;28;20254;-48
2023/02/01 03:21:42;;;;;;;6.53;3.50;;;4.50;99.90;;;;;;5019262;28;20250;-50
2023/02/01 03:24:12;;;;;;;5.30;3.90;;;4.50;99.90;;;;;;5011739;28;20261;-49
2023/02/01 03:26:43;;;;;;;3.77;3.43;;;4.40;99.90;;;;;;5029366;28;20192;-51
2023/02/01 03:29:13;;;;;;;4.87;4.07;;;4.40;99.90;;;;;;5030345;28;20168;-50
2023/02/01 03:31:40;;;;;;;4.10;3.70;;;4.40;99.90;;;;;;5031796;28;20168;-50
2023/02/01 03:34:05;;;;;;;5.50;3.83;;;4.50;99.90;;;;;;5033623;28;20180;-49
2023/02/01 03:36:48;;;;;;;3.77;3.37;;;4.40;99.90;;;;;;5033425;28;20245;-52
2023/02/01 03:39:29;;;;;;;4.67;3.93;;;4.40;99.90;;;;;;5032502;28;20180;-51
2023/02/01 03:42:01;;;;;;;4.97;3.60;;;4.50;99.90;;;;;;5033518;28;20234;-49
2023/02/01 03:44:59;;;;;;;5.20;3.73;;;4.60;99.90;;;;;;5032833;28;20214;-52
2023/02/01 03:47:29;;;;;;;4.90;3.80;;;4.60;99.90;;;;;;5022953;28;20204;-48
2023/02/01 03:50:01;;;;;;;4.00;3.60;;;4.50;99.90;;;;;;5032900;28;20176;-51
2023/02/01 03:52:42;;;;;;;5.03;4.37;;;6.60;99.90;;;;;;5033273;28;20213;-49
2023/02/01 03:55:10;;;;;;;5.97;4.10;;;4.60;99.90;;;;;;5032219;28;20175;-49
2023/02/01 03:57:43;;;;;;;5.20;3.87;;;4.60;99.90;;;;;;5032810;28;20556;-50
2023/02/01 04:00:18;;;;;;;4.47;3.80;;;4.70;99.90;;;;;;5030057;28;20225;-50
2023/02/01 04:02:44;;;;;;;4.87;3.77;;;5.60;99.90;;;;;;4996467;28;20586;-48
2023/02/01 04:05:09;;;;;;;4.87;3.60;;;4.60;99.90;;;;;;5028960;28;20280;-50
2023/02/01 04:07:35;;;;;;;4.90;4.00;;;4.50;99.90;;;;;;4995928;28;20183;-53
2023/02/01 04:10:00;;;;;;;5.10;4.00;;;4.50;99.90;;;;;;5014959;28;20208;-49
2023/02/01 04:12:26;;;;;;;3.90;3.53;;;4.40;99.90;;;;;;5027408;28;20176;-50
2023/02/01 04:14:52;;;;;;;4.13;3.60;;;4.40;99.90;;;;;;5014436;28;20179;-49
2023/02/01 04:17:18;;;;;;;4.57;3.60;;;4.40;99.90;;;;;;5032645;28;20200;-52
2023/02/01 04:19:43;;;;;;;4.17;3.53;;;4.50;99.90;;;;;;5033236;28;20222;-49
2023/02/01 04:22:09;;;;;;;4.57;4.10;;;4.50;99.90;;;;;;5032410;28;20187;-51
2023/02/01 04:24:36;;;;;;;4.90;3.60;;;4.50;99.90;;;;;;5032363;28;20212;-48
2023/02/01 04:27:02;;;;;;;4.27;3.83;;;4.40;99.90;;;;;;5032836;28;20207;-48
2023/02/01 04:29:28;;;;;;;4.57;3.93;;;4.40;99.90;;;;;;5031898;28;20225;-53
2023/02/01 04:31:53;;;;;;;4.10;3.70;;;4.50;99.90;;;;;;5032066;28;20196;-49
2023/02/01 04:34:19;;;;;;;4.77;3.93;;;4.40;99.90;;;;;;5032052;28;20210;-52
2023/02/01 04:36:44;;;;;;;5.13;3.90;;;4.40;99.90;;;;;;5032573;28;20200;-52
2023/02/01 04:39:10;;;;;;;4.10;3.70;;;5.40;99.90;;;;;;5031943;28;20187;-51
2023/02/01 04:41:36;;;;;;;4.73;3.57;;;4.40;99.90;;;;;;5032467;28;20293;-52
2023/02/01 04:44:01;;;;;;;4.40;4.00;;;4.40;99.90;;;;;;5031848;28;20200;-48
2023/02/01 04:46:27;;;;;;;4.00;3.57;;;4.50;99.90;;;;;;5032368;28;20207;-48
2023/02/01 04:48:52;;;;;;;4.43;3.80;;;4.60;99.90;;;;;;5032148;28;20180;-50
2023/02/01 04:51:18;;;;;;;4.70;3.47;;;4.60;99.90;;;;;;5032019;28;20188;-52
2023/02/01 04:53:44;;;;;;;4.77;3.83;;;4.60;99.90;;;;;;5032224;28;20218;-50
2023/02/01 04:56:10;;;;;;;4.37;3.63;;;4.70;99.90;;;;;;5031780;28;20534;-51
2023/02/01 04:58:35;;;;;;;4.50;3.33;;;4.60;99.90;;;;;;5031822;28;20268;-49
2023/02/01 05:01:06;;;;;;;4.20;3.80;;;4.60;99.90;;;;;;5025093;28;20208;-49
2023/02/01 05:03:32;;;;;;;5.30;3.60;;;4.40;99.90;;;;;;5032325;28;20286;-51
2023/02/01 05:05:59;;;;;;;4.00;3.20;;;4.50;99.90;;;;;;5031353;28;20199;-48
2023/02/01 05:08:25;;;;;;;4.60;4.00;;;4.50;99.90;;;;;;5031422;28;20179;-51
2023/02/01 05:10:51;;;;;;;5.53;3.40;;;4.60;99.90;;;;;;5031582;28;20210;-49
2023/02/01 05:16:01;;;;;;;3.63;3.33;;;4.50;99.90;;;;;;5031737;28;20250;-51
2023/02/01 05:18:26;;;;;;;5.60;4.17;;;4.60;99.90;;;;;;5031237;28;20176;-53
2023/02/01 05:20:52;;;;;;;4.40;3.70;;;4.50;99.90;;;;;;5031559;28;20588;-52
2023/02/01 05:23:17;;;;;;;3.90;3.50;;;4.50;99.90;;;;;;5031192;28;20172;-50
2023/02/01 05:25:43;;;;;;;5.47;4.00;;;4.40;99.90;;;;;;5031413;28;20200;-52
2023/02/01 05:28:08;;;;;;;4.77;3.87;;;4.50;99.90;;;;;;5031799;28;20168;-49
2023/02/01 05:30:35;;;;;;;5.40;4.10;;;4.40;99.90;;;;;;5030895;28;20275;-49
2023/02/01 05:33:01;;;;;;;5.03;3.80;;;4.40;99.90;;;;;;5031436;28;20553;-52
2023/02/01 05:35:27;;;;;;;9.17;4.17;;;4.40;99.90;;;;;;5030788;28;20271;-50
2023/02/01 05:37:53;;;;;;;6.60;4.80;;;4.40;99.90;;;;;;5031261;28;20743;-50
2023/02/01 05:40:18;;;;;;;5.17;3.80;;;4.40;99.90;;;;;;5030776;28;20187;-50
2023/02/01 05:42:44;;;;;;;4.97;3.90;;;;;;;;;;5031070;28;20186;-50
2023/02/01 05:45:10;;;;;;;4.90;4.27;;;4.30;99.90;;;;;;5030023;28;20218;-52
2023/02/01 05:47:36;;;;;;;5.27;4.30;;;4.30;99.90;;;;;;5030927;28;20179;-51
2023/02/01 05:50:04;;;;;;;6.93;5.03;;;4.30;99.90;;;;;;5031523;28;20636;-51
2023/02/01 05:52:29;;;;;;;5.47;4.70;;;4.30;99.90;;;;;;5028098;28;20207;-49
2023/02/01 05:54:55;;;;;;;6.90;4.90;;;4.20;99.90;;;;;;5029863;28;20211;-48
2023/02/01 05:57:21;;;;;;;5.67;4.43;;;;;;;;;;5030675;28;20215;-52
2023/02/01 05:59:48;;;;;;;5.57;4.77;;;;;;;;;;5030827;28;20179;-51
2023/02/01 06:02:14;;;;;;;4.97;4.47;;;4.30;99.90;;;;;;5033446;22;20247;-52
2023/02/01 06:04:40;;;;;;;5.47;4.73;;;4.60;99.90;;;;;;5008632;28;20201;-48
2023/02/01 06:07:07;;;;;;;5.83;5.13;;;4.70;99.90;;;;;;5009022;28;20173;-51
2023/02/01 06:09:36;;;;;;;6.57;5.10;;;4.80;99.90;;;;;;5009977;28;20172;-52
2023/02/01 06:12:03;;;;;;;5.50;4.40;;;5.10;99.90;;;;;;5012295;28;20196;-49
2023/02/01 06:14:29;;;;;;;7.13;5.30;;;4.70;99.90;;;;;;5016432;28;20175;-49
2023/02/01 06:16:55;;;;;;;5.30;4.77;;;4.40;99.90;;;;;;5026089;28;20238;-52
2023/02/01 06:19:21;;;;;;;6.50;5.20;;;4.40;99.90;;;;;;5021151;28;20565;-52
2023/02/01 06:21:47;;;;;;;8.03;5.07;;;4.40;99.90;;;;;;5010704;28;20200;-50
2023/02/01 06:24:12;;;;;;;5.20;4.67;;;4.30;99.90;;;;;;5019560;28;20206;-49
2023/02/01 06:26:39;;;;;;;5.37;4.80;;;4.40;99.90;;;;;;5015622;28;20169;-49
2023/02/01 06:29:06;;;;;;;7.50;5.43;;;4.20;99.90;;;;;;5018083;28;20663;-49
2023/02/01 06:31:32;;;;;;;7.40;5.73;;;4.40;99.90;;;;;;5020541;28;20189;-52
2023/02/01 06:33:57;;;;;;;6.70;4.90;;;3.90;99.90;;;;;;5015489;28;20179;-51
2023/02/01 06:36:23;;;;;;;6.50;5.33;;;4.30;99.90;;;;;;5019460;28;20422;-50
2023/02/01 06:38:49;;;;;;;6.23;5.50;;;;;;;;;;5013663;28;20192;-52
2023/02/01 06:41:15;;;;;;;6.50;5.40;;;4.20;99.90;;;;;;5011937;28;20192;-53
2023/02/01 06:43:40;;;;;;;6.87;5.23;;;4.40;99.90;;;;;;5013675;28;20243;-50
2023/02/01 06:46:09;;;;;;;10.67;8.47;;;4.20;99.90;;;;;;5013296;28;20163;-50
2023/02/01 06:48:34;;;;;;;6.53;5.17;;;4.40;99.90;;;;;;5010448;28;20180;-49
2023/02/01 06:51:00;;;;;;;7.07;5.20;;;4.20;99.90;;;;;;5011625;28;20188;-49
2023/02/01 06:53:26;;;;;;;8.57;5.57;;;4.30;99.90;;;;;;5010846;28;20974;-49
2023/02/01 06:55:59;;;;;;;6.43;5.50;;;4.50;99.90;;;;;;5025959;28;20184;-51
2023/02/01 06:58:32;;;;;;;5.90;5.23;;;4.30;99.90;;;;;;5009583;28;20204;-50
2023/02/01 07:01:04;;;;;;;7.53;6.00;;;4.30;99.90;;;;;;5010933;28;20288;-49
2023/02/01 07:03:30;;;;;;;7.63;5.87;;;4.30;99.90;;;;;;4993353;28;20219;-48
2023/02/01 07:05:58;;;;;;;6.43;5.33;;;4.20;99.90;;;;;;5011879;28;20181;-49
2023/02/01 07:08:23;;;;;;;6.40;5.40;;;4.20;99.90;;;;;;5014442;28;20171;-50
2023/02/01 07:10:49;;;;;;;5.53;4.83;;;4.20;99.90;;;;;;5014673;28;20176;-48
2023/02/01 07:13:14;;;;;;;6.23;5.00;;;4.20;99.90;;;;;;5014463;28;20222;-50
2023/02/01 07:15:40;;;;;;;5.43;4.73;;;4.30;99.90;;;;;;5014906;28;20180;-49
2023/02/01 07:18:05;;;;;;;6.77;5.03;;;4.20;99.90;;;;;;5014739;28;20196;-48
2023/02/01 07:20:31;;;;;;;6.73;5.37;;;4.20;99.90;;;;;;5014444;28;20657;-52
2023/02/01 07:22:57;;;;;;;6.60;5.23;;;4.10;99.90;;;;;;4997099;28;20196;-49
2023/02/01 07:25:23;;;;;;;5.70;5.10;;;4.10;99.90;;;;;;5013661;28;20570;-50
2023/02/01 07:27:49;;;;;;;6.57;5.00;;;4.10;99.90;;;;;;5012581;28;20185;-48
2023/02/01 07:30:14;;;;;;;5.77;4.80;;;4.10;99.90;;;;;;5013674;28;20575;-49
2023/02/01 07:32:40;;;;;;;6.53;5.13;;;4.00;99.90;;;;;;5014438;28;20199;-49
2023/02/01 07:35:06;;;;;;;8.27;5.20;;;3.90;99.90;;;;;;5014174;28;20208;-48
2023/02/01 07:37:31;;;;;;;6.27;5.20;;;3.80;99.90;;;;;;5013800;28;20203;-51
2023/02/01 07:39:57;;;;;;;6.00;5.10;;;3.80;99.90;;;;;;5012741;28;20529;-48
2023/02/01 07:42:22;;;;;;;6.43;5.20;;;2.10;99.90;;;;;;5014031;28;20204;-48
2023/02/01 07:44:48;;;;;;;5.77;5.00;;;3.80;99.90;;;;;;5014138;28;20839;-48
2023/02/01 07:47:13;;;;;;;5.83;5.10;;;3.60;99.90;;;;;;5013944;28;20310;-50
2023/02/01 07:49:39;;;;;;;6.87;5.27;;;3.80;99.90;;;;;;5014068;28;20227;-49
2023/02/01 07:52:04;;;;;;;5.47;4.57;;;3.90;99.90;;;;;;5014036;28;20704;-49
2023/02/01 07:54:30;;;;;;;5.80;5.00;;;3.90;99.90;;;;;;5012954;28;20169;-49
2023/02/01 07:56:56;;;;;;;7.60;5.30;;;3.90;99.90;;;;;;5013942;28;20618;-49
2023/02/01 07:59:22;;;;;;;6.13;4.87;;;4.00;99.90;;;;;;5013239;28;20191;-50
2023/02/01 08:01:47;;;;;;;4.80;4.30;;;4.10;99.90;;;;;;4996060;28;20207;-46
2023/02/01 08:04:13;;;;;;;6.20;4.90;;;4.10;99.90;;;;;;5013594;28;20196;-47
2023/02/01 08:06:40;;;;;;;6.40;4.57;;;4.00;99.90;;;;;;4996324;28;20203;-52
2023/02/01 08:09:07;;;;;;;5.53;4.70;;;4.10;99.90;;;;;;4996318;28;20831;-53
2023/02/01 08:11:33;;;;;;;5.00;3.90;;;4.20;99.90;;;;;;4996595;28;20683;-48
2023/02/01 08:13:59;;;;;;;5.47;3.87;;;4.10;99.90;;;;;;5013601;28;20255;-51
2023/02/01 08:16:25;;;;;;;5.00;3.90;;;4.10;99.90;;;;;;5013207;28;20633;-50
2023/02/01 08:18:52;;;;;;;4.10;3.70;;;4.20;99.90;;;;;;5013037;28;20184;-51
2023/02/01 08:21:27;;;;;;;4.60;3.87;;;4.20;99.90;;;;;;5013178;28;20276;-53
2023/02/01 08:23:53;;;;;;;4.10;3.43;;;4.20;99.90;;;;;;5013303;28;20195;-48
2023/02/01 08:26:24;;;;;;;4.47;3.60;;;4.30;99.90;;;;;;5012882;28;20179;-47
2023/02/01 08:28:56;;;;;;;4.43;4.00;;;4.30;99.90;;;;;;5010918;28;20787;-50
2023/02/01 08:31:23;;;;;;;3.90;3.50;;;4.40;99.90;;;;;;5012983;28;20172;-50
2023/02/01 08:33:54;;;;;;;5.60;3.53;;;4.40;99.90;;;;;;5011543;28;20207;-49
2023/02/01 08:36:23;;;;;;;3.90;3.50;;;4.40;99.90;;;;;;5013148;28;20184;-49
2023/02/01 08:38:49;;;;;;;4.60;3.10;;;4.40;99.90;;;;;;5012330;28;20203;-48
2023/02/01 08:41:20;;;;;;;3.73;3.33;;;4.40;99.90;;;;;;5013196;28;20649;-53
2023/02/01 08:43:46;;;;;;;5.87;3.53;;;4.40;99.90;;;;;;5012346;28;20215;-49
2023/02/01 08:46:12;;;;;;;4.47;3.43;;;4.50;99.90;;;;;;5013023;28;20177;-52
2023/02/01 08:48:38;;;;;;;4.13;3.20;;;4.50;99.90;;;;;;5011609;28;20278;-50
2023/02/01 08:51:05;;;;;;;4.30;3.47;;;4.60;99.90;;;;;;5013205;28;20275;-49
2023/02/01 08:53:31;;;;;;;6.63;3.87;;;4.60;99.90;;;;;;5012191;28;20196;-49
2023/02/01 08:55:57;;;;;;;4.20;3.40;;;4.70;99.90;;;;;;5012075;28;20220;-48
2023/02/01 08:58:22;;;;;;;3.57;3.20;;;4.70;99.90;;;;;;5013036;28;20188;-48
2023/02/01 09:00:49;;;;;;;3.67;3.17;;;4.80;99.90;;;;;;5012820;28;20714;-49
2023/02/01 09:03:15;;;;;;;3.60;3.30;;;5.00;99.90;;;;;;4995462;28;20216;-48
2023/02/01 09:05:41;;;;;;;4.00;3.60;;;5.00;99.90;;;;;;5012439;28;20626;-49
2023/02/01 09:08:07;;;;;;;4.17;3.77;;;5.20;99.90;;;;;;5012683;28;20176;-50
2023/02/01 09:10:34;;;;;;;3.87;3.47;;;5.30;99.90;;;;;;5011820;28;20192;-55
2023/02/01 09:13:00;;;;;;;4.10;3.70;;;5.40;99.90;;;;;;5011980;28;20197;-48
2023/02/01 09:15:25;;;;;;;3.70;3.40;;;5.40;99.90;;;;;;5012642;28;20695;-51
2023/02/01 09:17:51;;;;;;;4.17;3.77;;;5.30;99.90;;;;;;5012349;28;20173;-50
2023/02/01 09:20:18;;;;;;;4.13;3.60;;;5.40;99.90;;;;;;5012512;28;20306;-53
2023/02/01 09:22:44;;;;;;;4.33;3.93;;;5.30;99.90;;;;;;5012095;28;20287;-47
2023/02/01 09:25:09;;;;;;;4.00;3.60;;;5.20;99.90;;;;;;5011120;28;20553;-51
2023/02/01 09:27:35;;;;;;;4.30;3.90;;;5.10;99.90;;;;;;5012123;28;20196;-54
2023/02/01 09:30:01;;;;;;;3.50;3.20;;;5.10;99.90;;;;;;4993179;28;20235;-47
2023/02/01 09:32:27;;;;;;;4.13;3.63;;;5.00;99.90;;;;;;5012268;28;20197;-51
2023/02/01 09:34:52;;;;;;;3.53;3.23;;;4.80;99.90;;;;;;5011833;28;20183;-49
2023/02/01 09:37:19;;;;;;;3.77;3.40;;;4.80;99.90;;;;;;5012158;28;20176;-48
2023/02/01 09:39:45;;;;;;;4.10;3.27;;;4.70;99.90;;;;;;5011128;28;20238;-52
2023/02/01 09:42:42;;;;;;;4.60;3.60;;;4.70;99.90;;;;;;5011965;28;20196;-50
2023/02/01 09:45:22;;;;;;;4.20;3.47;;;4.40;99.90;;;;;;5011584;28;20216;-53
2023/02/01 09:47:53;;;;;;;5.60;4.00;;;4.10;99.90;;;;;;4994251;28;20204;-48
2023/02/01 09:50:33;;;;;;;4.40;3.30;;;3.70;99.90;;;;;;5010416;28;20192;-50
2023/02/01 09:53:11;;;;;;;5.47;3.60;;;3.40;99.90;;;;;;5008377;28;20212;-52
2023/02/01 09:55:49;;;;;;;3.90;3.50;;;3.30;99.90;;;;;;4991330;28;20184;-50
2023/02/01 09:58:36;;;;;;;4.00;3.63;;;3.20;99.90;;;;;;5000963;28;20172;-46
2023/02/01 10:01:05;;;;;;;4.37;3.80;;;3.20;99.90;;;;;;5011745;28;20176;-50
2023/02/01 10:03:33;;;;;;;5.37;3.73;;;3.10;99.90;;;;;;5011385;28;20613;-47
2023/02/01 10:06:17;;;;;;;4.70;3.80;;;3.10;99.90;;;;;;5011484;28;20273;-51
2023/02/01 10:08:54;;;;;;;4.50;4.10;;;3.20;99.90;;;;;;5009334;28;20184;-47
2023/02/01 10:11:48;;;;;;;5.60;4.47;;;3.30;99.90;;;;;;5010978;28;20176;-50
2023/02/01 10:14:40;;;;;;;6.70;4.60;;;3.50;99.90;;;;;;5011380;28;20298;-50
2023/02/01 10:17:20;;;;;;;6.03;4.00;;;3.70;99.90;;;;;;5011558;28;20190;-53
2023/02/01 10:19:53;;;;;;;4.27;3.87;;;3.70;99.90;;;;;;5010485;28;20652;-48
2023/02/01 10:22:25;;;;;;;4.10;3.70;;;3.70;99.90;;;;;;5007326;28;20208;-50
2023/02/01 10:25:20;;;;;;;12.27;9.70;;;3.80;99.90;;;;;;5009979;28;20632;-51
2023/02/01 10:27:46;;;;;;;4.00;3.70;;;3.80;99.90;;;;;;5003031;28;20191;-48
2023/02/01 10:30:19;;;;;;;5.07;3.60;;;3.80;99.90;;;;;;5010946;28;20176;-47
2023/02/01 10:32:45;;;;;;;4.70;3.87;;;3.80;99.90;;;;;;5010893;28;20258;-49
2023/02/01 10:35:17;;;;;;;5.23;3.67;;;3.80;99.90;;;;;;5010752;28;20168;-47
2023/02/01 10:37:45;;;;;;;5.27;3.70;;;3.90;99.90;;;;;;5010934;28;20173;-50
2023/02/01 10:40:21;;;;;;;3.63;3.23;;;3.80;99.90;;;;;;5012328;28;20279;-47
2023/02/01 10:42:53;;;;;;;3.80;3.40;;;3.80;99.90;;;;;;5014932;28;20194;-51
2023/02/01 10:45:25;;;;;;;3.77;3.23;;;4.00;99.90;;;;;;5014757;28;20212;-48
2023/02/01 10:47:54;;;;;;;6.73;3.70;;;4.20;99.90;;;;;;5014289;28;20674;-46
2023/02/01 10:50:41;;;;;;;5.20;3.40;;;4.40;99.90;;;;;;5014819;28;20223;-52
2023/02/01 10:53:31;;;;;;;3.23;2.93;;;4.30;99.90;;;;;;5015441;28;20220;-47
2023/02/01 10:55:57;;;;;;;4.03;3.60;;;4.20;99.90;;;;;;5014528;28;20223;-49
2023/02/01 10:58:36;;;;;;;3.50;3.20;;;4.30;99.90;;;;;;5014835;28;20176;-52
2023/02/01 11:01:05;;;;;;;4.03;3.63;;;4.30;99.90;;;;;;5013887;28;20177;-48
2023/02/01 11:03:51;;;;;;;4.70;3.80;;;4.30;99.90;;;;;;5014591;28;20274;-47
2023/02/01 11:06:27;;;;;;;4.60;3.57;;;4.20;99.90;;;;;;5014253;28;20280;-47
2023/02/01 11:08:59;;;;;;;4.97;4.07;;;4.10;99.90;;;;;;5013088;28;20665;-50
2023/02/01 11:11:25;;;;;;;4.50;3.90;;;4.10;99.90;;;;;;4997433;28;20258;-48
2023/02/01 11:14:00;;;;;;;5.33;3.90;;;4.00;99.90;;;;;;5014405;28;20191;-46
2023/02/01 11:16:33;;;;;;;4.17;3.70;;;4.10;99.90;;;;;;5014512;28;20974;-53
2023/02/01 11:18:59;;;;;;;4.10;3.70;;;4.10;99.90;;;;;;5014213;28;20200;-50
2023/02/01 11:21:25;;;;;;;4.10;3.70;;;4.10;99.90;;;;;;5014129;28;20218;-48
2023/02/01 11:23:51;;;;;;;5.80;3.93;;;4.20;99.90;;;;;;5014104;28;20606;-49
2023/02/01 11:26:25;;;;;;;4.33;3.90;;;4.20;99.90;;;;;;5013822;28;20264;-50
2023/02/01 11:28:57;;;;;;;5.43;4.33;;;4.30;99.90;;;;;;5013722;28;20218;-50
2023/02/01 11:31:24;;;;;;;5.53;4.20;;;4.30;99.90;;;;;;5014459;28;20169;-48
2023/02/01 11:33:54;;;;;;;4.87;3.60;;;4.30;99.90;;;;;;5014016;28;20259;-48
2023/02/01 11:36:29;;;;;;;4.10;3.50;;;4.30;99.90;;;;;;5012623;28;20239;-48
2023/02/01 11:39:17;;;;;;;6.97;3.90;;;4.50;99.90;;;;;;5012510;28;20184;-53
2023/02/01 11:41:54;;;;;;;5.73;4.00;;;4.60;99.90;;;;;;5013959;28;20868;-53
2023/02/01 11:44:31;;;;;;;4.63;3.40;;;4.70;99.90;;;;;;5016165;28;20211;-48
2023/02/01 11:47:30;;;;;;;5.03;3.60;;;4.80;99.90;;;;;;5012598;28;20176;-49
2023/02/01 11:49:58;;;;;;;6.63;3.27;;;5.10;99.90;;;;;;5011499;28;20181;-51
2023/02/01 11:52:43;;;;;;;3.67;2.90;;;5.10;99.90;;;;;;5009604;28;20196;-49
2023/02/01 11:55:39;;;;;;;6.40;3.00;;;5.10;99.90;;;;;;5009741;28;20211;-49
2023/02/01 11:58:30;;;;;;;3.73;2.90;;;5.00;99.90;;;;;;5013747;28;20180;-50
2023/02/01 12:01:15;;;;;;;5.20;3.00;;;5.00;99.90;;;;;;5013585;28;20706;-48
2023/02/01 12:04:05;;;;;;;3.13;2.53;;;5.00;99.90;;;;;;4994946;28;20204;-48
2023/02/01 12:06:49;;;;;;;3.27;3.00;;;5.00;99.90;;;;;;5025843;28;20175;-51
2023/02/01 12:09:53;;;;;;;3.20;2.90;;;5.00;99.90;;;;;;5013203;28;20256;-50
2023/02/01 12:12:28;;;;;;;4.43;2.90;;;5.10;99.90;;;;;;5052977;22;20254;-49
2023/02/01 12:15:08;;;;;;;4.60;2.97;;;5.00;99.90;;;;;;5028332;28;20207;-53
2023/02/01 12:17:40;;;;;;;4.60;2.77;;;5.00;99.90;;;;;;5030195;28;20332;-51
2023/02/01 12:20:56;;;;;;;6.30;2.90;;;5.00;99.90;;;;;;5031550;28;20266;-51
2023/02/01 12:23:46;;;;;;;7.87;3.20;;;4.90;99.90;;;;;;4923734;29;20282;-54
2023/02/01 12:26:35;;;;;;;4.70;2.87;;;4.70;99.90;;;;;;4933272;29;20522;-53
2023/02/01 12:29:25;;;;;;;2.63;2.00;;;4.80;99.90;;;;;;4920190;29;20188;-53
2023/02/01 12:32:20;;;;;;;2.27;2.07;;;4.50;99.90;;;;;;4916026;29;20202;-52
2023/02/01 12:34:54;;;;;;;2.27;2.07;;;4.50;99.90;;;;;;4914320;29;20196;-50
2023/02/01 12:38:10;;;;;;;4.53;2.00;;;4.00;99.90;;;;;;4906812;29;20281;-51
2023/02/01 12:40:44;;;;;;;3.03;1.80;;;4.10;99.90;;;;;;4905259;29;20192;-53
2023/02/01 12:43:21;;;;;;;5.10;2.20;;;3.80;99.90;;;;;;4907587;29;20220;-51
2023/02/01 12:45:56;;;;;;;3.97;2.60;;;3.70;99.90;;;;;;4894825;29;20535;-52
2023/02/01 12:48:36;;;;;;;3.40;2.80;;;3.80;99.90;;;;;;4894530;29;20196;-51
2023/02/01 12:51:17;;;;;;;4.73;2.83;;;3.70;99.90;;;;;;4893840;29;20196;-52
2023/02/01 12:54:02;;;;;;;5.87;3.30;;;3.80;99.90;;;;;;4888995;29;20209;-51
2023/02/01 12:56:38;;;;;;;3.73;3.30;;;4.00;99.90;;;;;;4894936;29;20200;-52
2023/02/01 12:59:16;;;;;;;4.97;3.53;;;4.20;99.90;;;;;;4884721;29;20197;-53
2023/02/01 13:01:51;;;;;;;7.13;3.67;;;4.20;99.90;;;;;;4947693;29;20186;-52
2023/02/01 13:04:30;;;;;;;4.20;3.40;;;4.40;99.90;;;;;;4945600;29;20280;-54
2023/02/01 13:07:01;;;;;;;5.90;3.57;;;4.50;99.90;;;;;;4948835;29;20675;-51
2023/02/01 13:09:39;;;;;;;8.67;3.30;;;4.60;99.90;;;;;;4945485;29;20195;-53
2023/02/01 13:12:27;;;;;;;5.47;3.30;;;4.60;99.90;;;;;;4937678;29;20234;-52
2023/02/01 13:15:20;;;;;;;5.83;3.50;;;4.70;99.90;;;;;;4932566;29;20195;-53
2023/02/01 13:17:49;;;;;;;6.45;3.45;;;4.70;99.90;;;;;;4939464;29;20352;-53
2023/02/01 13:20:25;;;;;;;5.00;3.20;;;4.70;99.90;;;;;;4933631;29;20583;-52
2023/02/01 13:22:57;;;;;;;5.27;3.33;;;4.70;99.90;;;;;;4946982;29;20297;-53
2023/02/01 13:25:44;;;;;;;7.10;4.00;;;4.80;99.90;;;;;;4947978;29;20343;-53
2023/02/01 13:28:50;;;;;;;4.07;3.30;;;4.80;99.90;;;;;;4940367;29;20190;-49
2023/02/01 13:31:46;;;;;;;4.90;3.53;;;4.90;99.90;;;;;;4878393;29;20200;-54
2023/02/01 13:34:32;;;;;;;4.80;3.13;;;4.90;99.90;;;;;;4894461;29;20220;-52
2023/02/01 13:37:28;;;;;;;4.83;3.43;;;4.90;99.90;;;;;;4894753;29;20271;-53
2023/02/01 13:40:26;;;;;;;5.63;3.53;;;4.90;99.90;;;;;;4878994;29;20181;-52
2023/02/01 13:42:59;;;;;;;4.90;3.53;;;4.80;99.90;;;;;;4885369;29;20278;-52